Time;durP1;ratioP1;P1;durP2;ratioP2;P2;SDS_P1;SDS_P2;PMS_P1;PMS_P2;Temp;Humidity;BMP_temperature;BMP_pressure;BME280_temperature;BME280_humidity;BME280_pressure;Samples;Min_cycle;Max_cycle;Signal;HPM_P1;HPM_P2
2023/06/16 00:00:01;;;;;;;19.70;12.87;;;11.60;99.90;;;;;;4357694;27;661262;-70
2023/06/16 00:02:48;;;;;;;20.33;12.17;;;11.60;99.90;;;;;;4365080;27;660848;-69
2023/06/16 00:05:35;;;;;;;18.23;12.13;;;11.60;99.90;;;;;;4350821;28;660768;-69
2023/06/16 00:08:25;;;;;;;17.37;12.57;;;11.70;99.90;;;;;;4378002;28;660595;-69
2023/06/16 00:11:12;;;;;;;19.60;12.40;;;11.70;99.90;;;;;;4350921;27;662561;-69
2023/06/16 00:13:59;;;;;;;17.03;11.60;;;11.70;99.90;;;;;;4369607;28;661112;-69
2023/06/16 00:16:47;;;;;;;17.83;12.73;;;11.70;99.90;;;;;;4353090;27;662039;-70
2023/06/16 00:19:35;;;;;;;19.47;12.00;;;11.60;99.90;;;;;;4358788;28;661256;-69
2023/06/16 00:22:25;;;;;;;17.80;13.03;;;11.60;99.90;;;;;;4376838;28;662133;-69
2023/06/16 00:25:13;;;;;;;17.27;12.90;;;11.50;99.90;;;;;;4345068;28;660998;-69
2023/06/16 00:28:01;;;;;;;15.80;11.97;;;11.40;99.90;;;;;;4354181;28;660873;-69
2023/06/16 00:30:48;;;;;;;17.10;12.73;;;11.30;99.90;;;;;;4369702;28;660921;-69
2023/06/16 00:33:35;;;;;;;17.85;12.30;;;11.30;99.90;;;;;;4358244;28;660664;-69
2023/06/16 00:36:23;;;;;;;16.87;13.00;;;11.30;99.90;;;;;;4374732;27;662051;-69
2023/06/16 00:39:10;;;;;;;19.27;13.03;;;11.30;99.90;;;;;;4346088;28;660428;-69
2023/06/16 00:41:59;;;;;;;19.60;13.87;;;11.30;99.90;;;;;;4384264;27;661074;-69
2023/06/16 00:44:46;;;;;;;19.90;13.70;;;11.20;99.90;;;;;;4350693;28;660218;-69
2023/06/16 00:47:33;;;;;;;19.27;14.07;;;11.20;99.90;;;;;;4373029;28;662112;-69
2023/06/16 00:50:21;;;;;;;20.60;13.97;;;11.20;99.90;;;;;;4349545;28;660743;-69
2023/06/16 00:53:08;;;;;;;24.23;14.40;;;11.30;99.90;;;;;;4377185;28;662253;-69
2023/06/16 00:55:55;;;;;;;20.63;14.90;;;11.20;99.90;;;;;;4344928;27;661860;-69
2023/06/16 00:58:44;;;;;;;18.13;13.67;;;11.30;99.90;;;;;;4365320;28;661554;-70
2023/06/16 01:01:34;;;;;;;19.63;13.00;;;11.20;99.90;;;;;;4350640;28;661102;-69
2023/06/16 01:04:21;;;;;;;18.97;13.40;;;11.00;99.90;;;;;;4359981;28;661886;-69
2023/06/16 01:07:11;;;;;;;17.97;12.87;;;11.00;99.90;;;;;;4369433;28;661041;-69
2023/06/16 01:10:01;;;;;;;19.93;13.23;;;11.00;99.90;;;;;;4356764;28;661009;-69
2023/06/16 01:12:53;;;;;;;18.67;12.87;;;11.00;99.90;;;;;;4348976;28;661083;-69
2023/06/16 01:15:43;;;;;;;19.50;12.97;;;11.00;99.90;;;;;;4308851;28;660978;-69
2023/06/16 01:18:30;;;;;;;17.92;13.77;;;10.90;99.90;;;;;;4355111;28;661025;-69
2023/06/16 01:21:23;;;;;;;18.20;13.20;;;10.90;99.90;;;;;;4368499;28;661575;-69
2023/06/16 01:24:13;;;;;;;20.13;13.70;;;10.90;99.90;;;;;;4349627;28;661275;-70
2023/06/16 01:27:01;;;;;;;18.20;13.40;;;10.80;99.90;;;;;;4360077;28;661545;-69
2023/06/16 01:29:49;;;;;;;19.20;13.80;;;10.70;99.90;;;;;;4373058;27;660706;-69
2023/06/16 01:32:36;;;;;;;18.87;12.73;;;10.70;99.90;;;;;;4350368;28;661215;-69
2023/06/16 01:35:23;;;;;;;18.60;13.27;;;10.60;99.90;;;;;;4379492;28;660851;-69
2023/06/16 01:38:11;;;;;;;18.97;13.80;;;10.50;99.90;;;;;;4355028;27;661240;-69
2023/06/16 01:40:59;;;;;;;20.17;13.70;;;10.50;99.90;;;;;;4375257;28;660960;-69
2023/06/16 01:43:47;;;;;;;20.57;13.93;;;10.50;99.90;;;;;;4353788;28;661515;-69
2023/06/16 01:46:34;;;;;;;20.37;12.83;;;10.40;99.90;;;;;;4364176;27;660747;-69
2023/06/16 01:49:21;;;;;;;19.70;13.47;;;10.40;99.90;;;;;;4344343;28;660781;-70
2023/06/16 01:52:09;;;;;;;20.50;13.87;;;10.40;99.90;;;;;;4374790;28;660905;-69
2023/06/16 01:54:56;;;;;;;22.07;13.87;;;10.40;99.90;;;;;;4345832;27;661908;-70
2023/06/16 01:57:44;;;;;;;20.80;14.47;;;10.40;99.90;;;;;;4377960;28;662354;-69
2023/06/16 02:00:34;;;;;;;21.17;14.10;;;10.30;99.90;;;;;;4357458;27;661660;-69
2023/06/16 02:03:25;;;;;;;21.43;14.97;;;10.40;99.90;;;;;;4348764;28;660509;-70
2023/06/16 02:06:16;;;;;;;20.47;14.73;;;10.30;99.90;;;;;;4336838;28;661368;-69
2023/06/16 02:09:04;;;;;;;27.40;14.23;;;10.30;99.90;;;;;;4343925;27;661699;-69
2023/06/16 02:11:51;;;;;;;20.93;15.07;;;10.30;99.90;;;;;;4339273;28;661055;-69
2023/06/16 02:14:40;;;;;;;21.60;14.03;;;10.20;99.90;;;;;;4364639;28;662195;-69
2023/06/16 02:17:28;;;;;;;18.37;13.17;;;10.20;99.90;;;;;;4348463;28;661734;-69
2023/06/16 02:20:15;;;;;;;17.97;12.53;;;10.20;99.90;;;;;;4366887;28;661039;-69
2023/06/16 02:23:03;;;;;;;18.13;12.47;;;10.20;99.90;;;;;;4372159;28;662439;-69
2023/06/16 02:25:50;;;;;;;15.77;11.97;;;10.10;99.90;;;;;;4341888;28;660482;-69
2023/06/16 02:28:37;;;;;;;21.20;11.40;;;10.10;99.90;;;;;;4371722;28;662161;-69
2023/06/16 02:31:27;;;;;;;17.80;12.53;;;10.10;99.90;;;;;;4372848;28;661401;-70
2023/06/16 02:34:14;;;;;;;18.30;12.43;;;10.10;99.90;;;;;;4317571;28;661018;-70
2023/06/16 02:37:02;;;;;;;16.53;11.17;;;10.00;99.90;;;;;;4215363;27;661202;-70
2023/06/16 02:39:50;;;;;;;17.20;11.47;;;10.00;99.90;;;;;;4240372;28;661221;-70
2023/06/16 02:42:37;;;;;;;18.53;12.03;;;10.00;99.90;;;;;;4254343;28;660881;-70
2023/06/16 02:45:25;;;;;;;15.77;11.27;;;10.00;99.90;;;;;;4356606;27;660641;-70
2023/06/16 02:48:14;;;;;;;20.63;12.00;;;10.00;99.90;;;;;;4368861;28;661942;-69
2023/06/16 02:51:01;;;;;;;17.48;12.07;;;10.00;99.90;;;;;;4356852;28;661016;-69
2023/06/16 02:53:49;;;;;;;19.23;11.80;;;10.10;99.90;;;;;;4360294;28;661972;-70
2023/06/16 02:56:36;;;;;;;15.38;11.20;;;10.10;99.90;;;;;;4348265;28;660670;-69
2023/06/16 02:59:24;;;;;;;17.10;10.77;;;10.20;99.90;;;;;;4351442;28;661063;-69
2023/06/16 03:02:11;;;;;;;19.00;10.87;;;10.20;99.90;;;;;;4348751;28;660935;-70
2023/06/16 03:05:01;;;;;;;16.60;11.03;;;10.10;99.90;;;;;;4366870;28;661701;-69
2023/06/16 03:07:48;;;;;;;14.70;10.70;;;10.20;99.90;;;;;;4339947;27;661509;-69
2023/06/16 03:10:35;;;;;;;14.73;10.37;;;10.20;99.90;;;;;;4354466;28;661096;-69
2023/06/16 03:13:22;;;;;;;14.27;9.77;;;10.20;99.90;;;;;;4381078;28;661559;-70
2023/06/16 03:16:12;;;;;;;16.80;10.80;;;10.20;99.90;;;;;;4360279;28;660934;-69
2023/06/16 03:18:59;;;;;;;17.10;10.97;;;10.20;99.90;;;;;;4376251;27;661510;-70
2023/06/16 03:21:50;;;;;;;16.40;11.00;;;10.20;99.90;;;;;;4349859;28;660904;-70
2023/06/16 03:24:38;;;;;;;15.53;10.70;;;10.30;99.90;;;;;;4349388;28;662106;-69
2023/06/16 03:27:25;;;;;;;17.80;11.40;;;10.30;99.90;;;;;;4363156;28;661273;-70
2023/06/16 03:30:13;;;;;;;17.30;11.53;;;10.30;99.90;;;;;;4379180;28;661755;-69
2023/06/16 03:33:00;;;;;;;16.87;11.17;;;10.30;99.90;;;;;;4368036;28;660848;-69
2023/06/16 03:35:47;;;;;;;14.50;10.17;;;10.40;99.90;;;;;;4392095;27;660725;-69
2023/06/16 03:38:37;;;;;;;14.13;9.57;;;10.40;99.90;;;;;;4386551;27;661399;-69
2023/06/16 03:41:24;;;;;;;12.47;9.83;;;10.60;99.90;;;;;;4378848;28;659650;-69
2023/06/16 03:44:11;;;;;;;17.97;9.47;;;10.70;99.90;;;;;;4375695;27;659698;-69
2023/06/16 03:46:58;;;;;;;12.27;8.97;;;10.70;99.90;;;;;;4394065;28;660505;-69
2023/06/16 03:49:45;;;;;;;13.23;9.57;;;10.80;99.90;;;;;;4356707;28;659846;-69
2023/06/16 03:52:33;;;;;;;15.40;9.57;;;10.90;99.90;;;;;;4381101;28;660982;-69
2023/06/16 03:55:23;;;;;;;15.33;10.03;;;11.00;99.90;;;;;;4378606;28;659466;-70
2023/06/16 03:58:11;;;;;;;13.17;9.03;;;11.00;99.90;;;;;;4358492;28;661169;-69
2023/06/16 04:00:58;;;;;;;15.17;9.23;;;11.10;99.90;;;;;;4385690;28;659874;-69
2023/06/16 04:03:46;;;;;;;12.93;9.30;;;11.20;99.90;;;;;;4368788;28;661091;-69
2023/06/16 04:06:34;;;;;;;13.77;9.37;;;11.30;99.90;;;;;;4379950;28;660700;-69
2023/06/16 04:09:22;;;;;;;11.50;8.77;;;11.50;99.90;;;;;;4354615;28;660965;-69
2023/06/16 04:12:11;;;;;;;14.47;9.40;;;11.60;99.90;;;;;;4395183;27;659714;-69
2023/06/16 04:26:52;;;;;;;15.30;10.37;;;11.90;99.90;;;;;;5064240;27;21409;-73
2023/06/16 04:29:41;;;;;;;13.83;9.70;;;12.50;99.90;;;;;;5055680;27;20204;-75
2023/06/16 04:32:28;;;;;;;14.30;9.60;;;12.70;99.90;;;;;;5044595;27;20356;-76
2023/06/16 04:35:16;;;;;;;13.50;9.60;;;13.00;99.90;;;;;;5037688;27;20214;-75
2023/06/16 04:38:03;;;;;;;14.60;10.90;;;13.10;99.90;;;;;;5053905;27;20209;-75
2023/06/16 04:40:51;;;;;;;14.20;9.77;;;13.20;99.90;;;;;;5058185;27;20555;-74
2023/06/16 04:43:39;;;;;;;12.90;10.73;;;13.30;99.90;;;;;;5042090;27;20590;-75
2023/06/16 04:46:27;;;;;;;14.40;10.87;;;13.40;99.90;;;;;;5048590;27;20199;-75
2023/06/16 04:49:14;;;;;;;14.30;10.70;;;13.50;99.90;;;;;;5049471;27;20212;-75
2023/06/16 04:52:01;;;;;;;14.60;11.23;;;13.70;99.90;;;;;;5034895;27;20218;-75
2023/06/16 04:54:48;;;;;;;15.63;11.17;;;13.80;99.90;;;;;;5056272;27;20232;-75
2023/06/16 04:57:36;;;;;;;18.47;11.07;;;14.00;99.90;;;;;;5038952;27;20354;-75
2023/06/16 05:00:27;;;;;;;15.90;10.67;;;14.00;99.90;;;;;;5046784;27;20340;-75
2023/06/16 05:03:16;;;;;;;13.30;10.80;;;14.20;99.90;;;;;;5048578;27;20215;-75
2023/06/16 05:06:03;;;;;;;15.10;10.20;;;14.30;99.90;;;;;;5046679;27;20211;-75
2023/06/16 05:08:50;;;;;;;13.87;9.83;;;14.50;99.90;;;;;;5033015;27;20215;-75
2023/06/16 05:11:38;;;;;;;15.40;9.07;;;14.60;99.90;;;;;;5046794;27;20210;-74
2023/06/16 05:14:25;;;;;;;11.37;8.73;;;14.80;99.90;;;;;;5049882;27;20557;-75
2023/06/16 05:17:14;;;;;;;17.33;8.60;;;15.00;99.90;;;;;;5068608;27;20254;-75
2023/06/16 05:20:01;;;;;;;8.73;7.50;;;15.10;99.90;;;;;;5158430;27;20198;-75
2023/06/16 05:22:48;;;;;;;9.20;7.53;;;15.30;99.90;;;;;;5157692;27;20401;-75
2023/06/16 05:25:35;;;;;;;15.20;8.60;;;15.50;99.90;;;;;;5153233;27;20296;-73
2023/06/16 05:28:22;;;;;;;8.90;8.00;;;15.70;99.90;;;;;;5144407;27;20209;-73
2023/06/16 05:31:10;;;;;;;10.00;8.17;;;15.80;99.90;;;;;;5143606;27;20686;-73
2023/06/16 05:33:58;;;;;;;10.87;7.43;;;16.00;99.90;;;;;;5135312;27;20700;-73
2023/06/16 05:36:46;;;;;;;11.03;7.40;;;16.10;99.90;;;;;;5144425;27;20205;-73
2023/06/16 05:39:33;;;;;;;8.70;7.23;;;16.20;99.90;;;;;;5143704;27;20197;-73
2023/06/16 05:42:20;;;;;;;10.87;7.30;;;16.40;99.90;;;;;;5143496;27;20212;-73
2023/06/16 05:45:08;;;;;;;10.33;7.93;;;16.60;99.90;;;;;;5142766;27;20194;-74
2023/06/16 05:47:55;;;;;;;15.93;9.57;;;16.70;99.90;;;;;;5145239;27;20192;-74
2023/06/16 05:50:44;;;;;;;15.40;11.30;;;16.80;99.90;;;;;;5128895;27;20205;-74
2023/06/16 05:53:31;;;;;;;20.33;12.77;;;16.70;99.90;;;;;;5129384;27;20232;-73
2023/06/16 05:56:18;;;;;;;16.77;10.63;;;16.60;99.90;;;;;;5148224;27;20228;-73
2023/06/16 05:59:06;;;;;;;13.53;10.13;;;16.70;99.90;;;;;;5142382;27;20746;-73
2023/06/16 06:01:53;;;;;;;18.43;11.50;;;16.80;99.90;;;;;;5137779;27;20202;-74
2023/06/16 06:04:40;;;;;;;14.27;9.63;;;17.00;99.90;;;;;;5142085;27;20660;-73
2023/06/16 06:07:29;;;;;;;12.50;8.90;;;17.20;99.90;;;;;;5151930;27;20229;-72
2023/06/16 06:10:17;;;;;;;11.80;8.17;;;17.30;99.90;;;;;;5145254;27;20198;-73
2023/06/16 06:13:04;;;;;;;13.97;8.93;;;17.40;99.90;;;;;;5135225;27;20249;-73
2023/06/16 06:15:51;;;;;;;13.33;9.13;;;17.60;99.90;;;;;;5128081;27;20719;-73
2023/06/16 06:18:38;;;;;;;13.53;10.30;;;17.90;99.90;;;;;;5134547;27;20199;-73
2023/06/16 06:21:26;;;;;;;16.03;10.63;;;18.10;99.90;;;;;;5134729;27;20235;-73
2023/06/16 06:24:14;;;;;;;18.23;11.70;;;18.40;99.90;;;;;;5140734;27;20279;-72
2023/06/16 06:27:02;;;;;;;13.90;11.17;;;18.70;99.90;;;;;;5033457;27;20197;-73
2023/06/16 06:29:49;;;;;;;15.67;10.90;;;18.70;99.90;;;;;;5034567;27;20223;-73
2023/06/16 06:32:37;;;;;;;13.80;10.90;;;18.70;99.90;;;;;;5039636;27;20258;-73
2023/06/16 06:35:25;;;;;;;16.43;10.60;;;18.60;99.90;;;;;;5034585;27;20215;-72
2023/06/16 06:38:12;;;;;;;13.07;10.13;;;18.60;99.90;;;;;;5015821;27;20293;-74
2023/06/16 06:41:01;;;;;;;18.00;9.90;;;18.80;99.90;;;;;;5029721;27;20198;-74
2023/06/16 06:43:48;;;;;;;16.43;9.93;;;19.10;99.90;;;;;;5032915;27;20199;-73
2023/06/16 06:46:36;;;;;;;12.30;9.20;;;19.40;99.90;;;;;;5028924;28;20207;-72
2023/06/16 06:49:23;;;;;;;14.10;8.80;;;19.60;99.90;;;;;;5033952;27;20698;-72
2023/06/16 06:52:10;;;;;;;11.77;9.07;;;20.00;99.90;;;;;;5050675;27;20200;-72
2023/06/16 06:54:57;;;;;;;11.67;8.97;;;20.30;99.90;;;;;;5027268;27;20579;-72
2023/06/16 06:57:47;;;;;;;15.90;9.23;;;20.50;99.90;;;;;;5035925;27;20202;-72
2023/06/16 07:00:34;;;;;;;14.70;8.60;;;20.80;99.90;;;;;;5030030;27;20571;-72
2023/06/16 07:03:22;;;;;;;11.30;9.00;;;21.00;99.90;;;;;;5033457;27;20206;-73
2023/06/16 07:06:10;;;;;;;12.83;8.20;;;20.90;99.90;;;;;;5035661;27;20197;-72
2023/06/16 07:08:58;;;;;;;11.80;8.63;;;20.70;99.90;;;;;;5045122;27;20271;-72
2023/06/16 07:11:45;;;;;;;12.10;8.07;;;20.50;99.90;;;;;;5038666;27;20314;-72
2023/06/16 07:14:34;;;;;;;10.70;7.90;;;20.50;99.90;;;;;;5010509;27;20206;-72
2023/06/16 07:17:21;;;;;;;9.70;7.40;;;20.60;99.90;;;;;;5019918;27;20231;-72
2023/06/16 07:20:09;;;;;;;10.00;7.20;;;20.80;99.90;;;;;;5022968;27;20266;-72
2023/06/16 07:22:57;;;;;;;9.03;7.07;;;20.90;99.90;;;;;;5035878;27;20899;-72
2023/06/16 07:25:44;;;;;;;8.43;6.77;;;20.50;99.90;;;;;;5101088;27;20218;-71
2023/06/16 07:28:31;;;;;;;10.47;6.43;;;20.30;99.90;;;;;;5138559;27;20194;-72
2023/06/16 07:31:20;;;;;;;7.67;6.33;;;20.40;99.90;;;;;;5133909;27;20225;-72
2023/06/16 07:34:07;;;;;;;9.67;6.70;;;20.30;99.90;;;;;;5143786;27;20193;-72
2023/06/16 07:36:54;;;;;;;10.23;6.70;;;20.40;99.90;;;;;;5143979;27;20219;-71
2023/06/16 07:39:41;;;;;;;9.33;7.17;;;20.50;99.90;;;;;;5145223;27;20647;-73
2023/06/16 07:42:28;;;;;;;12.27;7.60;;;20.60;99.90;;;;;;5144404;27;20272;-72
2023/06/16 07:45:17;;;;;;;10.37;7.30;;;20.60;99.90;;;;;;5148291;27;20568;-72
2023/06/16 07:48:07;;;;;;;9.17;7.13;;;20.60;99.90;;;;;;5136503;27;20236;-73
2023/06/16 07:50:55;;;;;;;10.33;7.37;;;20.80;99.90;;;;;;5144043;27;20278;-72
2023/06/16 07:53:42;;;;;;;14.43;8.13;;;20.90;99.90;;;;;;5143058;27;20202;-72
2023/06/16 07:56:29;;;;;;;9.43;7.33;;;20.90;99.90;;;;;;5141228;27;20728;-73
2023/06/16 07:59:17;;;;;;;7.93;6.73;;;20.90;99.90;;;;;;5141989;27;20292;-72
2023/06/16 08:02:04;;;;;;;13.80;7.63;;;20.90;99.90;;;;;;5134646;27;20209;-72
2023/06/16 08:04:53;;;;;;;13.97;7.57;;;20.70;99.90;;;;;;5133143;27;20201;-72
2023/06/16 08:07:40;;;;;;;9.03;7.33;;;20.80;99.90;;;;;;5144549;27;20182;-72
2023/06/16 08:10:27;;;;;;;7.57;6.63;;;20.80;99.90;;;;;;5144331;27;20206;-72
2023/06/16 08:13:14;;;;;;;11.47;7.83;;;20.80;99.90;;;;;;5139975;27;20263;-72
2023/06/16 08:16:02;;;;;;;10.00;8.07;;;20.70;99.90;;;;;;5141961;27;20566;-71
2023/06/16 08:18:50;;;;;;;9.37;7.43;;;20.50;99.90;;;;;;5144550;27;20572;-72
2023/06/16 08:21:39;;;;;;;9.70;7.87;;;20.40;99.90;;;;;;5134390;27;21768;-72
2023/06/16 08:24:26;;;;;;;12.67;8.13;;;20.50;99.90;;;;;;5143488;27;20260;-71
2023/06/16 08:27:14;;;;;;;9.93;8.00;;;20.40;99.90;;;;;;5145280;27;20194;-72
2023/06/16 08:30:01;;;;;;;11.37;7.70;;;20.50;99.90;;;;;;5141417;27;20618;-72
2023/06/16 08:32:48;;;;;;;10.87;8.30;;;20.50;99.90;;;;;;5140827;27;20221;-72
2023/06/16 08:35:36;;;;;;;10.83;8.73;;;20.50;99.90;;;;;;5146553;27;20224;-71
2023/06/16 08:38:24;;;;;;;13.03;8.63;;;20.40;99.90;;;;;;5143897;27;20677;-72
2023/06/16 08:41:14;;;;;;;12.90;8.53;;;20.60;99.90;;;;;;5125056;27;20198;-72
2023/06/16 08:44:01;;;;;;;11.23;9.40;;;20.60;99.90;;;;;;5145636;27;20231;-72
2023/06/16 08:46:50;;;;;;;11.13;8.57;;;20.50;99.90;;;;;;5152349;27;20190;-72
2023/06/16 08:49:39;;;;;;;12.73;8.50;;;20.20;99.90;;;;;;5144188;27;20204;-72
2023/06/16 08:52:28;;;;;;;10.37;9.03;;;19.90;99.90;;;;;;5143510;27;20209;-72
2023/06/16 08:55:16;;;;;;;13.17;9.20;;;20.20;99.90;;;;;;5144904;27;20684;-73
2023/06/16 08:58:04;;;;;;;12.37;8.90;;;20.40;99.90;;;;;;5132289;27;20198;-72
2023/06/16 09:00:51;;;;;;;13.13;9.53;;;20.60;99.90;;;;;;5144673;27;20660;-73
2023/06/16 09:03:39;;;;;;;11.63;8.87;;;20.50;99.90;;;;;;5148796;27;20202;-72
2023/06/16 09:06:26;;;;;;;11.43;9.77;;;20.30;99.90;;;;;;5146126;27;20652;-72
2023/06/16 09:09:14;;;;;;;10.93;9.03;;;20.20;99.90;;;;;;5141445;27;20222;-72
2023/06/16 09:12:07;;;;;;;14.77;9.80;;;20.20;99.90;;;;;;5139909;27;20246;-72
2023/06/16 09:14:54;;;;;;;16.43;11.33;;;20.30;99.90;;;;;;5139304;27;20618;-72
2023/06/16 09:17:41;;;;;;;13.33;10.30;;;20.30;99.90;;;;;;5148425;27;20230;-72
2023/06/16 09:20:31;;;;;;;13.27;9.47;;;20.40;99.90;;;;;;5147779;27;20209;-72
2023/06/16 09:23:27;;;;;;;14.13;9.97;;;20.30;99.90;;;;;;5147050;27;20559;-72
2023/06/16 09:26:15;;;;;;;15.50;9.90;;;20.10;99.90;;;;;;5145115;27;20242;-72
2023/06/16 09:29:03;;;;;;;13.60;9.97;;;19.80;99.90;;;;;;5138842;27;21842;-73
2023/06/16 09:31:51;;;;;;;14.83;10.33;;;19.70;99.90;;;;;;5140293;27;20214;-72
2023/06/16 09:34:39;;;;;;;16.97;11.43;;;19.60;99.90;;;;;;5144740;27;20193;-73
2023/06/16 09:37:26;;;;;;;16.20;11.33;;;19.50;99.90;;;;;;5145662;27;20214;-72
2023/06/16 09:40:14;;;;;;;14.63;10.83;;;19.50;99.90;;;;;;5136780;27;20194;-73
2023/06/16 09:43:03;;;;;;;13.77;11.63;;;19.40;99.90;;;;;;5143303;27;20208;-72
2023/06/16 09:45:58;;;;;;;17.27;12.00;;;19.20;99.90;;;;;;5137295;27;20317;-73
2023/06/16 09:48:46;;;;;;;19.10;11.83;;;18.60;99.90;;;;;;5146808;27;20198;-73
2023/06/16 09:51:33;;;;;;;19.30;12.67;;;18.30;99.90;;;;;;5145769;27;20774;-72
2023/06/16 09:54:21;;;;;;;21.07;13.63;;;18.50;99.90;;;;;;5146549;27;20277;-73
2023/06/16 09:57:08;;;;;;;19.87;13.70;;;18.70;99.90;;;;;;5143051;27;20210;-72
2023/06/16 09:59:55;;;;;;;18.10;13.37;;;18.80;99.90;;;;;;5145954;27;20201;-72
2023/06/16 10:02:44;;;;;;;17.87;12.50;;;19.00;99.90;;;;;;5135134;27;20315;-72
2023/06/16 10:05:34;;;;;;;19.23;13.27;;;19.30;99.90;;;;;;5141040;27;20202;-73
2023/06/16 10:08:22;;;;;;;20.00;13.13;;;19.50;99.90;;;;;;5132475;27;20209;-71
2023/06/16 10:11:09;;;;;;;21.97;13.03;;;19.40;99.90;;;;;;5144172;27;20209;-73
2023/06/16 10:13:58;;;;;;;20.17;13.33;;;19.40;99.90;;;;;;5139858;27;20198;-73
2023/06/16 10:16:45;;;;;;;17.63;13.47;;;19.80;99.90;;;;;;5138424;27;20240;-74
2023/06/16 10:19:34;;;;;;;19.07;13.00;;;20.00;99.90;;;;;;5129472;27;20580;-73
2023/06/16 10:22:21;;;;;;;14.43;12.07;;;20.20;99.90;;;;;;5142974;27;20201;-72
2023/06/16 10:25:09;;;;;;;17.43;12.50;;;20.40;99.90;;;;;;5141803;27;20244;-72
2023/06/16 10:27:57;;;;;;;16.57;12.30;;;20.60;99.90;;;;;;5144690;27;20194;-72
2023/06/16 10:30:44;;;;;;;16.03;11.07;;;20.80;99.90;;;;;;5142334;27;20221;-72
2023/06/16 10:33:51;;;;;;;17.43;11.47;;;21.10;99.90;;;;;;5142820;27;20205;-72
2023/06/16 10:36:39;;;;;;;18.53;13.00;;;21.00;99.90;;;;;;5142752;27;20221;-72
2023/06/16 10:39:26;;;;;;;13.97;10.87;;;21.10;99.90;;;;;;5146124;27;20561;-72
2023/06/16 10:42:14;;;;;;;13.77;9.80;;;21.20;99.90;;;;;;5144046;27;20568;-72
2023/06/16 10:45:23;;;;;;;13.17;9.70;;;21.30;99.90;;;;;;5134598;27;20198;-72
2023/06/16 10:48:11;;;;;;;16.23;9.67;;;21.30;99.90;;;;;;5142276;27;20706;-72
2023/06/16 10:50:59;;;;;;;11.87;8.90;;;21.50;99.90;;;;;;5141934;27;20201;-71
2023/06/16 10:53:50;;;;;;;13.67;9.37;;;21.50;99.90;;;;;;5148641;27;20612;-72
2023/06/16 10:57:06;;;;;;;10.53;8.43;;;21.70;99.90;;;;;;5145822;27;20639;-72
2023/06/16 10:59:54;;;;;;;10.17;8.23;;;21.80;99.90;;;;;;5146939;27;20276;-71
2023/06/16 11:02:48;;;;;;;12.43;8.70;;;21.90;99.90;;;;;;5134813;27;20198;-72
2023/06/16 11:05:38;;;;;;;13.80;8.80;;;22.00;99.90;;;;;;5147480;27;20715;-72
2023/06/16 11:08:27;;;;;;;10.97;7.90;;;22.20;99.90;;;;;;5142902;27;20198;-72
2023/06/16 11:11:16;;;;;;;8.30;7.40;;;22.50;99.90;;;;;;5138492;27;20695;-72
2023/06/16 11:14:03;;;;;;;10.70;7.57;;;22.70;99.90;;;;;;5140726;27;20194;-72
2023/06/16 11:16:50;;;;;;;12.50;7.93;;;22.80;99.90;;;;;;5148213;27;21024;-71
2023/06/16 11:19:38;;;;;;;9.53;7.30;;;22.90;99.90;;;;;;5131044;27;20198;-72
2023/06/16 11:22:32;;;;;;;9.77;7.13;;;23.40;99.90;;;;;;5140923;27;20683;-71
2023/06/16 11:25:19;;;;;;;9.60;6.90;;;24.30;99.90;;;;;;5137917;27;20241;-72
2023/06/16 11:28:09;;;;;;;10.23;6.93;;;24.90;99.90;;;;;;5139477;27;20198;-71
2023/06/16 11:30:57;;;;;;;7.85;6.70;;;25.70;99.80;;;;;;5147354;27;20195;-72
2023/06/16 11:33:44;;;;;;;7.20;5.65;;;26.30;90.00;;;;;;5142942;27;20209;-72
2023/06/16 11:36:32;;;;;;;10.57;5.70;;;26.00;74.40;;;;;;5130227;27;20262;-72
2023/06/16 11:39:19;;;;;;;15.88;7.00;;;25.90;69.20;;;;;;5140560;27;20193;-71
2023/06/16 11:42:11;;;;;;;9.32;6.43;;;25.60;69.40;;;;;;5140688;27;20201;-71
2023/06/16 11:45:00;;;;;;;13.43;8.60;;;25.20;74.70;;;;;;5141963;27;20774;-71
2023/06/16 11:47:48;;;;;;;9.10;7.88;;;25.10;78.50;;;;;;5139770;27;20201;-74
2023/06/16 11:50:35;;;;;;;10.82;7.13;;;25.50;80.40;;;;;;5132673;27;20198;-72
2023/06/16 11:53:22;;;;;;;8.85;6.72;;;25.80;78.90;;;;;;5140306;27;20205;-71
2023/06/16 11:56:11;;;;;;;12.70;8.60;;;25.90;74.20;;;;;;5145519;27;20227;-71
2023/06/16 11:59:03;;;;;;;10.60;7.82;;;26.20;80.70;;;;;;5133908;27;20186;-72
2023/06/16 12:01:51;;;;;;;10.25;8.10;;;26.40;73.80;;;;;;5135181;27;20301;-72
2023/06/16 12:04:39;;;;;;;13.45;8.60;;;26.30;69.90;;;;;;5137929;27;20194;-72
2023/06/16 12:07:27;;;;;;;14.05;7.88;;;26.20;74.80;;;;;;5139705;27;20202;-73
2023/06/16 12:10:14;;;;;;;10.85;7.50;;;26.50;75.10;;;;;;5142414;27;20197;-71
2023/06/16 12:13:01;;;;;;;11.02;8.45;;;26.60;71.60;;;;;;5145176;27;20194;-72
2023/06/16 12:15:49;;;;;;;9.93;7.82;;;26.70;69.10;;;;;;5132271;27;20201;-71
2023/06/16 12:18:37;;;;;;;12.02;7.70;;;26.60;66.60;;;;;;5140840;27;20235;-72
2023/06/16 12:21:28;;;;;;;12.35;7.55;;;26.60;65.90;;;;;;5140456;27;20554;-71
2023/06/16 12:24:16;;;;;;;12.30;7.30;;;26.70;66.50;;;;;;5139485;27;20951;-71
2023/06/16 12:27:03;;;;;;;9.82;7.85;;;26.70;66.90;;;;;;5141913;27;20208;-70
2023/06/16 12:29:56;;;;;;;12.38;8.50;;;26.60;65.80;;;;;;5136462;27;20199;-70
2023/06/16 12:32:44;;;;;;;15.07;8.18;;;26.40;63.30;;;;;;5140095;27;20203;-71
2023/06/16 12:35:33;;;;;;;9.25;7.10;;;26.60;64.10;;;;;;5139912;27;20281;-69
2023/06/16 12:38:31;;;;;;;12.32;7.82;;;26.30;62.90;;;;;;5142680;27;20703;-71
2023/06/16 12:41:18;;;;;;;10.68;7.43;;;25.80;63.70;;;;;;5145543;27;20663;-72
2023/06/16 12:44:05;;;;;;;11.80;8.20;;;25.60;64.70;;;;;;5144024;27;20202;-70
2023/06/16 12:46:53;;;;;;;12.98;8.75;;;25.00;62.00;;;;;;5137810;27;20213;-69
2023/06/16 12:49:40;;;;;;;12.00;7.97;;;25.10;72.10;;;;;;5140343;27;20284;-70
2023/06/16 12:52:30;;;;;;;11.05;7.43;;;25.30;68.80;;;;;;5141267;27;20209;-69
2023/06/16 12:55:17;;;;;;;9.35;7.53;;;25.40;67.10;;;;;;5152088;27;20204;-71
2023/06/16 12:58:04;;;;;;;9.63;7.70;;;25.40;68.50;;;;;;5146507;27;20240;-70
2023/06/16 13:00:51;;;;;;;11.32;7.82;;;25.30;67.20;;;;;;5145464;27;20656;-70
2023/06/16 13:03:41;;;;;;;13.38;8.50;;;25.10;67.80;;;;;;5145234;27;20202;-69
2023/06/16 13:06:28;;;;;;;11.90;7.63;;;25.00;72.60;;;;;;5131000;27;20202;-69
2023/06/16 13:09:20;;;;;;;11.80;7.72;;;25.20;72.20;;;;;;5146185;27;20202;-69
2023/06/16 13:12:08;;;;;;;12.65;8.25;;;25.30;71.30;;;;;;5148188;27;20193;-71
2023/06/16 13:14:56;;;;;;;15.15;8.43;;;25.50;69.70;;;;;;5145099;27;20257;-70
2023/06/16 13:17:43;;;;;;;8.73;7.60;;;25.50;69.80;;;;;;5141556;27;21070;-71
2023/06/16 13:20:30;;;;;;;13.75;8.45;;;25.70;69.70;;;;;;5148628;27;20205;-70
2023/06/16 13:23:17;;;;;;;14.30;7.95;;;25.80;70.30;;;;;;5132970;27;20211;-72
2023/06/16 13:26:06;;;;;;;14.13;7.78;;;26.10;69.60;;;;;;5144268;27;20772;-70
2023/06/16 13:28:53;;;;;;;11.45;8.23;;;25.70;61.70;;;;;;5144746;27;20190;-70
2023/06/16 13:31:40;;;;;;;11.15;8.07;;;25.80;64.70;;;;;;5147963;27;20197;-70
2023/06/16 13:34:28;;;;;;;10.63;7.47;;;25.60;67.60;;;;;;5144253;27;20236;-70
2023/06/16 13:37:15;;;;;;;12.52;7.88;;;25.50;64.10;;;;;;5146611;27;20298;-70
2023/06/16 13:40:03;;;;;;;12.75;7.88;;;25.40;65.90;;;;;;5130806;27;21693;-71
2023/06/16 13:42:51;;;;;;;12.60;8.25;;;25.50;66.80;;;;;;5147032;27;20246;-71
2023/06/16 13:45:39;;;;;;;17.52;7.90;;;25.30;63.90;;;;;;5141868;27;20201;-70
2023/06/16 13:48:26;;;;;;;12.95;8.48;;;25.00;66.10;;;;;;5143885;27;20198;-71
2023/06/16 13:51:13;;;;;;;11.70;8.20;;;25.00;65.30;;;;;;5148797;27;20205;-69
2023/06/16 13:54:01;;;;;;;21.10;8.32;;;24.90;65.40;;;;;;5140171;27;20194;-70
2023/06/16 13:56:50;;;;;;;9.15;7.57;;;24.80;69.80;;;;;;5130066;27;20193;-73
2023/06/16 13:59:38;;;;;;;14.40;8.38;;;24.70;67.00;;;;;;5149536;27;20223;-73
2023/06/16 14:02:26;;;;;;;16.63;7.93;;;24.60;69.00;;;;;;5146659;27;20687;-69
2023/06/16 14:05:13;;;;;;;11.60;8.32;;;24.80;69.00;;;;;;5148285;27;20194;-70
2023/06/16 14:08:01;;;;;;;16.00;7.85;;;25.00;67.80;;;;;;5143363;27;20189;-72
2023/06/16 14:10:48;;;;;;;10.23;7.72;;;25.20;65.60;;;;;;5146258;27;20201;-72
2023/06/16 14:13:36;;;;;;;28.95;8.45;;;25.10;66.90;;;;;;5145126;27;20206;-69
2023/06/16 14:16:25;;;;;;;11.07;8.30;;;25.00;65.10;;;;;;5146591;27;20190;-72
2023/06/16 14:19:12;;;;;;;15.45;8.50;;;25.20;69.00;;;;;;5135440;27;20697;-69
2023/06/16 14:22:00;;;;;;;20.38;8.00;;;25.40;66.40;;;;;;5145678;27;20201;-69
2023/06/16 14:24:47;;;;;;;14.25;9.13;;;25.70;64.80;;;;;;5143977;27;20218;-70
2023/06/16 14:27:34;;;;;;;8.43;6.82;;;26.00;68.40;;;;;;5147918;27;20226;-70